Time;durP1;ratioP1;P1;durP2;ratioP2;P2;SDS_P1;SDS_P2;PMS_P1;PMS_P2;Temp;Humidity;BMP_temperature;BMP_pressure;BME280_temperature;BME280_humidity;BME280_pressure;Samples;Min_cycle;Max_cycle;Signal;HPM_P1;HPM_P2
2021/06/17 00:00:42;;;;;;;28.35;20.92;;;;;;;21.46;66.56;101174.56;5018358;28;20118;-72
2021/06/17 00:03:10;;;;;;;26.48;19.40;;;;;;;21.45;67.09;101181.84;5017564;28;20069;-72
2021/06/17 00:05:38;;;;;;;27.40;20.45;;;;;;;21.39;67.21;101171.41;5013383;28;20057;-72
2021/06/17 00:08:07;;;;;;;27.10;20.38;;;;;;;21.42;67.14;101175.78;5014308;28;20073;-72
2021/06/17 00:10:37;;;;;;;24.17;18.55;;;;;;;21.42;67.01;101171.19;5015911;28;20068;-74
2021/06/17 00:13:08;;;;;;;27.20;20.10;;;;;;;21.41;67.02;101168.59;5012701;28;20076;-74
2021/06/17 00:15:38;;;;;;;28.77;21.00;;;;;;;21.39;67.16;101168.69;5020601;28;20069;-73
2021/06/17 00:18:09;;;;;;;27.35;19.70;;;;;;;21.39;67.03;101159.69;5009522;28;20549;-74
2021/06/17 00:20:37;;;;;;;28.90;20.00;;;;;;;21.42;66.84;101162.19;5019721;28;20065;-73
2021/06/17 00:23:06;;;;;;;27.60;20.70;;;;;;;21.44;66.82;101163.81;5018836;28;20069;-73
2021/06/17 00:25:34;;;;;;;26.38;20.25;;;;;;;21.45;66.76;101162.84;5011508;28;20072;-73
2021/06/17 00:28:02;;;;;;;27.30;19.60;;;;;;;21.48;66.49;101160.91;5017070;28;20051;-73
2021/06/17 00:30:31;;;;;;;27.77;20.33;;;;;;;21.51;66.43;101155.25;5012503;28;20075;-72
2021/06/17 00:32:59;;;;;;;29.67;21.42;;;;;;;21.48;66.17;101159.06;5014569;28;20045;-73
2021/06/17 00:35:28;;;;;;;28.40;20.98;;;;;;;21.48;66.87;101148.19;5015232;28;20053;-73
2021/06/17 00:37:58;;;;;;;29.60;20.67;;;;;;;21.48;66.62;101153.63;5010583;28;20068;-76
2021/06/17 00:40:26;;;;;;;26.65;19.98;;;;;;;21.44;66.50;101142.09;5018809;28;20066;-76
2021/06/17 00:42:55;;;;;;;28.00;19.90;;;;;;;21.43;66.47;101142.19;5013591;28;21132;-76
2021/06/17 00:45:25;;;;;;;26.15;19.92;;;;;;;21.39;66.63;101138.84;5019028;28;20073;-76
2021/06/17 00:47:55;;;;;;;28.35;20.90;;;;;;;21.39;66.70;101141.56;5014641;28;20100;-76
2021/06/17 00:50:24;;;;;;;29.33;21.63;;;;;;;21.38;66.90;101144.38;5016186;28;20061;-75
2021/06/17 00:52:52;;;;;;;26.40;20.48;;;;;;;21.36;66.95;101149.06;5016090;28;20058;-75
2021/06/17 00:55:21;;;;;;;27.73;20.90;;;;;;;21.31;66.82;101149.38;5013641;28;20057;-77
2021/06/17 00:57:49;;;;;;;28.48;20.38;;;;;;;21.32;66.87;101143.00;5016275;28;20080;-74
2021/06/17 01:00:19;;;;;;;29.05;22.38;;;;;;;21.29;66.78;101131.50;5013879;28;20059;-75
2021/06/17 01:02:47;;;;;;;28.58;20.05;;;;;;;21.26;67.24;101133.44;5018654;28;20065;-75
2021/06/17 01:05:20;;;;;;;33.78;23.80;;;;;;;21.24;67.25;101138.09;5010411;28;20057;-75
2021/06/17 01:07:58;;;;;;;27.92;22.05;;;;;;;21.23;67.40;101140.94;5014004;28;20253;-74
2021/06/17 01:10:36;;;;;;;29.80;20.67;;;;;;;21.26;67.55;101140.72;5012089;28;20058;-75
2021/06/17 01:13:12;;;;;;;30.73;22.15;;;;;;;21.25;67.47;101136.28;5016889;28;20058;-75
2021/06/17 01:16:07;;;;;;;28.10;21.30;;;;;;;21.25;67.69;101131.72;5014691;28;20061;-75
2021/06/17 01:18:38;;;;;;;32.97;22.63;;;;;;;21.25;67.85;101122.72;5016410;28;20128;-74
2021/06/17 01:21:14;;;;;;;30.25;21.80;;;;;;;21.30;67.69;101131.41;5013818;28;20169;-72
2021/06/17 01:23:57;;;;;;;31.60;21.52;;;;;;;21.31;67.73;101122.25;5016170;28;20151;-72
2021/06/17 01:26:38;;;;;;;32.15;23.35;;;;;;;21.34;67.74;101124.75;5017445;28;20072;-73
2021/06/17 01:29:13;;;;;;;31.70;21.98;;;;;;;21.34;67.61;101124.75;5024325;28;20346;-76
2021/06/17 01:31:42;;;;;;;30.23;23.23;;;;;;;21.36;67.46;101130.06;5017579;28;20779;-75
2021/06/17 01:34:12;;;;;;;30.35;23.00;;;;;;;21.38;67.52;101131.66;5019740;28;20063;-76
2021/06/17 01:36:47;;;;;;;33.30;23.38;;;;;;;21.39;67.59;101128.00;5016693;28;20061;-75
2021/06/17 01:39:18;;;;;;;30.95;22.25;;;;;;;21.43;67.48;101125.91;5020633;28;20053;-75
2021/06/17 01:41:49;;;;;;;30.42;23.13;;;;;;;21.42;67.62;101125.06;5016249;28;20118;-76
2021/06/17 01:44:22;;;;;;;34.63;23.83;;;;;;;21.41;67.75;101122.47;5020556;28;21417;-76
2021/06/17 01:46:51;;;;;;;33.75;23.67;;;;;;;21.41;67.72;101107.03;5014022;28;20065;-76
2021/06/17 01:49:21;;;;;;;33.05;23.33;;;;;;;21.43;67.68;101106.91;5019014;28;20062;-76
2021/06/17 01:51:50;;;;;;;34.17;22.38;;;;;;;21.41;67.77;101108.88;5017845;28;20068;-75
2021/06/17 01:54:23;;;;;;;30.10;24.50;;;;;;;21.41;67.97;101108.88;5018885;28;20061;-75
2021/06/17 01:56:53;;;;;;;34.58;25.00;;;;;;;21.37;68.02;101102.81;5018789;28;20310;-75
2021/06/17 01:59:24;;;;;;;33.97;25.15;;;;;;;21.36;68.29;101103.78;5021267;28;20061;-75
2021/06/17 02:01:55;;;;;;;31.98;24.80;;;;;;;21.37;68.33;101094.69;5015970;28;20057;-75
2021/06/17 02:04:26;;;;;;;36.53;27.33;;;;;;;21.37;68.33;101088.38;5017322;28;20069;-75
2021/06/17 02:06:55;;;;;;;35.15;26.15;;;;;;;21.34;68.88;101086.75;5017447;28;20123;-75
2021/06/17 02:09:24;;;;;;;31.10;24.67;;;;;;;21.32;68.90;101083.28;5020285;28;20103;-76
2021/06/17 02:11:53;;;;;;;36.47;27.00;;;;;;;21.28;69.02;101076.34;5013317;28;20066;-74
2021/06/17 02:14:24;;;;;;;31.35;25.80;;;;;;;21.25;69.12;101079.31;5019355;28;20057;-74
2021/06/17 02:16:53;;;;;;;27.70;23.15;;;;;;;21.24;69.32;101064.84;5017232;28;20076;-74
2021/06/17 02:19:26;;;;;;;35.15;26.58;;;;;;;21.17;69.50;101077.13;5019896;28;20057;-74
2021/06/17 02:21:58;;;;;;;35.80;27.77;;;;;;;21.14;69.84;101073.78;5018066;28;20062;-74
2021/06/17 02:24:28;;;;;;;35.03;26.00;;;;;;;21.09;69.73;101071.41;5016172;28;20141;-75
2021/06/17 02:26:58;;;;;;;36.92;27.75;;;;;;;21.04;69.95;101070.88;5017329;28;20526;-74
2021/06/17 02:29:31;;;;;;;38.80;27.27;;;;;;;20.99;70.07;101073.91;5017995;28;20111;-76
2021/06/17 02:31:59;;;;;;;39.43;29.73;;;;;;;20.96;70.18;101071.44;5018155;28;20635;-75
2021/06/17 02:34:28;;;;;;;39.08;29.67;;;;;;;20.95;70.02;101077.81;5018001;28;20152;-75
2021/06/17 02:36:57;;;;;;;40.45;29.02;;;;;;;20.95;69.71;101066.97;5021070;28;20297;-75
2021/06/17 02:39:28;;;;;;;43.35;31.75;;;;;;;20.94;69.78;101069.78;5018193;28;20483;-75
2021/06/17 02:42:00;;;;;;;44.83;31.33;;;;;;;20.94;69.35;101067.09;5019605;28;20061;-75
2021/06/17 02:44:30;;;;;;;41.70;31.27;;;;;;;20.89;69.47;101068.28;5017731;28;20071;-74
2021/06/17 02:46:58;;;;;;;42.30;31.35;;;;;;;20.87;69.72;101058.53;5019927;28;20314;-75
2021/06/17 02:49:26;;;;;;;41.95;31.25;;;;;;;20.86;69.60;101062.22;5015528;28;20058;-75
2021/06/17 02:51:55;;;;;;;39.70;29.20;;;;;;;20.84;69.64;101058.72;5020183;28;20062;-74
2021/06/17 02:54:22;;;;;;;43.55;30.20;;;;;;;20.82;69.65;101055.28;5016128;28;20068;-77
2021/06/17 02:57:00;;;;;;;41.55;31.20;;;;;;;20.81;69.80;101056.28;5024168;28;20061;-74
2021/06/17 02:59:49;;;;;;;43.30;30.42;;;;;;;20.78;69.97;101043.78;5021249;28;20139;-74
2021/06/17 03:02:20;;;;;;;45.75;33.80;;;;;;;20.76;69.68;101053.88;5013923;28;20066;-75
2021/06/17 03:04:50;;;;;;;41.42;31.35;;;;;;;20.75;70.02;101049.41;5016720;28;20096;-75
2021/06/17 03:07:22;;;;;;;43.95;34.10;;;;;;;20.69;69.94;101047.16;5018448;28;20072;-74
2021/06/17 03:09:57;;;;;;;47.58;32.47;;;;;;;20.66;70.20;101044.66;5014405;28;20065;-74
2021/06/17 03:12:28;;;;;;;41.90;32.88;;;;;;;20.62;70.36;101034.97;5020662;28;20061;-74
2021/06/17 03:15:00;;;;;;;49.70;34.92;;;;;;;20.62;70.36;101027.75;5012636;28;20076;-74
2021/06/17 03:17:31;;;;;;;47.83;34.20;;;;;;;20.63;70.38;101034.91;5016994;28;20143;-74
2021/06/17 03:20:02;;;;;;;51.45;36.58;;;;;;;20.61;70.38;101031.41;5013034;28;20144;-74
2021/06/17 03:22:32;;;;;;;53.70;37.60;;;;;;;20.59;70.39;101036.06;5016775;28;20188;-75
2021/06/17 03:25:06;;;;;;;51.42;36.25;;;;;;;20.59;70.34;101037.94;5015425;28;20057;-75
2021/06/17 03:27:36;;;;;;;43.88;31.73;;;;;;;20.59;70.29;101052.34;5014594;28;20068;-74
2021/06/17 03:30:07;;;;;;;48.95;35.83;;;;;;;20.59;69.88;101046.06;5011371;28;20063;-74
2021/06/17 03:32:38;;;;;;;45.60;33.85;;;;;;;20.58;69.81;101044.31;5019503;28;20053;-75
2021/06/17 03:35:07;;;;;;;50.20;35.42;;;;;;;20.56;69.43;101048.97;5014619;28;20203;-75
2021/06/17 03:37:37;;;;;;;47.95;34.35;;;;;;;20.55;69.87;101045.41;5018305;28;20080;-74
2021/06/17 03:40:06;;;;;;;46.50;33.15;;;;;;;20.57;69.54;101050.69;5012644;28;20119;-74
2021/06/17 03:42:35;;;;;;;43.17;31.55;;;;;;;20.57;69.87;101045.28;5016999;28;20422;-74
2021/06/17 03:45:05;;;;;;;46.95;33.05;;;;;;;20.58;69.32;101044.31;5017710;28;20076;-76
2021/06/17 03:47:34;;;;;;;46.50;33.75;;;;;;;20.60;69.05;101043.25;5011743;28;20053;-75
2021/06/17 03:50:03;;;;;;;45.83;32.97;;;;;;;20.64;69.23;101039.34;5015055;28;20072;-74
2021/06/17 03:52:31;;;;;;;46.83;33.05;;;;;;;20.66;69.00;101039.25;5017936;28;20073;-74
2021/06/17 03:55:00;;;;;;;42.95;31.27;;;;;;;20.65;68.53;101032.97;5016885;28;20057;-75
2021/06/17 03:57:28;;;;;;;47.58;32.60;;;;;;;20.68;68.40;101031.88;5016521;28;20056;-77
2021/06/17 03:59:56;;;;;;;45.47;31.40;;;;;;;20.71;68.32;101029.81;5015041;28;20057;-76
2021/06/17 04:02:29;;;;;;;37.97;29.05;;;;;;;20.73;68.29;101029.69;5016053;28;20602;-75
2021/06/17 04:04:58;;;;;;;45.20;32.00;;;;;;;20.79;67.97;101026.56;5021661;28;20077;-75
2021/06/17 04:07:27;;;;;;;44.92;33.05;;;;;;;20.81;67.92;101024.59;5014608;28;20064;-75
2021/06/17 04:09:59;;;;;;;44.60;32.25;;;;;;;20.86;67.43;101025.13;5022981;28;20052;-74
2021/06/17 04:12:30;;;;;;;45.97;33.42;;;;;;;20.91;67.10;101027.50;5015951;28;20091;-76
2021/06/17 04:15:01;;;;;;;41.20;31.02;;;;;;;20.99;66.66;101035.06;5019606;28;20061;-75
2021/06/17 04:17:33;;;;;;;44.53;32.13;;;;;;;21.06;65.87;101029.09;5013811;28;20148;-74
2021/06/17 04:20:04;;;;;;;43.30;29.10;;;;;;;21.15;65.25;101032.13;5032222;28;20058;-73
2021/06/17 04:22:37;;;;;;;39.33;30.20;;;;;;;21.24;64.83;101028.72;5014461;28;20061;-75
2021/06/17 04:25:07;;;;;;;42.00;29.40;;;;;;;21.27;64.47;101023.94;5015591;28;20049;-75
2021/06/17 04:27:37;;;;;;;40.15;30.13;;;;;;;21.37;63.77;101015.13;5018558;28;20053;-75
2021/06/17 04:30:07;;;;;;;37.63;27.98;;;;;;;21.47;63.40;101016.19;5017804;28;20057;-75
2021/06/17 04:32:40;;;;;;;39.28;29.05;;;;;;;21.53;63.05;101004.84;5011623;28;20049;-75
2021/06/17 04:35:10;;;;;;;40.45;28.70;;;;;;;21.58;62.90;101002.66;5018139;28;20066;-75
2021/06/17 04:37:39;;;;;;;40.75;29.40;;;;;;;21.67;62.37;101008.38;5009525;28;20072;-75
2021/06/17 04:40:09;;;;;;;38.28;26.60;;;;;;;21.72;62.58;101000.72;5017307;28;20068;-75
2021/06/17 04:42:37;;;;;;;34.60;26.17;;;;;;;21.80;62.13;101003.72;5015321;28;20068;-75
2021/06/17 04:45:06;;;;;;;36.67;27.58;;;;;;;21.95;61.16;100998.97;5015726;28;20064;-75
2021/06/17 04:47:38;;;;;;;39.67;29.20;;;;;;;22.03;60.77;100999.22;5013614;28;20077;-75
2021/06/17 04:50:08;;;;;;;36.63;26.65;;;;;;;22.12;60.79;100997.66;5013748;28;20097;-76
2021/06/17 04:52:37;;;;;;;37.92;27.15;;;;;;;22.24;60.33;101001.28;5013249;28;20061;-75
2021/06/17 04:55:06;;;;;;;35.72;25.42;;;;;;;22.31;60.02;100997.09;5018072;28;20065;-75
2021/06/17 04:57:34;;;;;;;33.38;25.17;;;;;;;22.44;59.51;101007.84;5013607;28;20800;-72
2021/06/17 05:00:03;;;;;;;37.50;27.00;;;;;;;22.56;59.45;101009.63;5017889;28;20057;-72
2021/06/17 05:02:31;;;;;;;34.25;23.95;;;;;;;22.69;59.17;101012.19;5018448;28;20057;-71
2021/06/17 05:05:00;;;;;;;36.97;26.17;;;;;;;22.77;59.21;101009.72;5015517;28;20064;-72
2021/06/17 05:07:52;;;;;;;36.47;25.00;;;;;;;22.94;58.59;101011.94;5016775;28;20099;-71
2021/06/17 05:13:06;;;;;;;32.30;24.17;;;;;;;23.23;57.92;101011.44;5017651;28;20774;-71
2021/06/17 05:15:37;;;;;;;30.95;25.27;;;;;;;23.39;57.31;101016.44;5012162;28;20057;-71
2021/06/17 05:18:05;;;;;;;31.48;23.27;;;;;;;23.60;57.08;101018.38;5017243;28;20057;-72
2021/06/17 05:20:34;;;;;;;32.05;22.85;;;;;;;23.72;56.30;101016.47;5014228;28;20627;-71
2021/06/17 05:23:02;;;;;;;27.30;20.85;;;;;;;23.91;55.84;101021.25;5016298;28;20144;-72
2021/06/17 05:25:33;;;;;;;27.00;22.05;;;;;;;24.08;55.33;101026.13;5011019;28;20109;-72
2021/06/17 05:28:01;;;;;;;27.77;21.00;;;;;;;24.25;55.48;101027.38;5013406;28;20092;-72
2021/06/17 05:30:29;;;;;;;26.88;22.15;;;;;;;24.36;54.79;101019.09;5013633;28;20057;-71
2021/06/17 05:32:57;;;;;;;23.33;19.90;;;;;;;24.54;53.94;101023.97;5017145;28;20495;-71
2021/06/17 05:35:24;;;;;;;31.88;21.67;;;;;;;24.67;53.61;101021.03;5010580;28;20115;-72
2021/06/17 05:37:54;;;;;;;26.63;20.60;;;;;;;24.82;52.98;101016.94;5015336;28;20071;-70
2021/06/17 05:40:22;;;;;;;25.70;19.75;;;;;;;24.89;52.72;101014.50;5010761;28;20049;-73
2021/06/17 05:42:50;;;;;;;24.85;19.95;;;;;;;25.01;52.81;101007.09;5012940;28;20189;-72
2021/06/17 05:45:18;;;;;;;30.27;20.88;;;;;;;25.15;52.58;101001.25;5014353;28;20069;-73
2021/06/17 05:47:46;;;;;;;24.50;19.40;;;;;;;25.24;51.88;101003.13;5011579;28;20061;-73
2021/06/17 05:50:14;;;;;;;27.67;20.08;;;;;;;25.61;51.52;101001.59;5013401;28;20060;-75
2021/06/17 05:52:42;;;;;;;24.88;19.10;;;;;;;25.70;50.41;100995.28;5011124;28;20066;-74
2021/06/17 05:55:12;;;;;;;26.08;19.52;;;;;;;25.66;51.13;100994.72;5017810;28;20088;-73
2021/06/17 05:57:41;;;;;;;28.20;19.25;;;;;;;25.39;51.60;101000.00;5020960;28;20176;-73
2021/06/17 06:00:11;;;;;;;25.45;19.15;;;;;;;25.26;51.96;100997.56;5009865;28;20069;-74
2021/06/17 06:02:39;;;;;;;26.67;18.25;;;;;;;25.04;52.26;101002.22;5016958;28;20202;-73
2021/06/17 06:05:07;;;;;;;24.15;19.13;;;;;;;25.01;52.77;101001.63;5013732;28;20488;-73
2021/06/17 06:07:38;;;;;;;24.30;18.00;;;;;;;24.94;52.95;101013.13;5009811;28;20057;-73
2021/06/17 06:10:08;;;;;;;23.08;17.90;;;;;;;24.90;53.53;101016.25;5012684;28;20088;-72
2021/06/17 06:12:37;;;;;;;27.88;17.00;;;;;;;24.84;53.45;101039.47;5009826;28;20057;-73
2021/06/17 06:15:06;;;;;;;19.88;17.15;;;;;;;24.59;53.88;101041.66;5019136;28;20061;-72
2021/06/17 06:17:34;;;;;;;23.27;17.48;;;;;;;24.57;53.71;101051.00;5013892;28;20110;-73
2021/06/17 06:20:03;;;;;;;21.05;16.45;;;;;;;24.57;54.01;101060.03;5017205;28;20061;-71
2021/06/17 06:22:31;;;;;;;19.17;14.88;;;;;;;24.74;53.72;101053.09;5017959;28;20072;-72
2021/06/17 06:24:59;;;;;;;19.75;13.50;;;;;;;24.83;52.93;101067.78;5016535;28;20071;-72
2021/06/17 06:27:26;;;;;;;16.48;12.77;;;;;;;24.77;52.45;101080.13;5012550;28;20061;-70
2021/06/17 06:29:56;;;;;;;16.73;11.40;;;;;;;24.88;52.03;101081.88;5022000;28;20467;-72
2021/06/17 06:32:23;;;;;;;15.95;11.27;;;;;;;24.98;50.65;101074.59;5013145;28;20108;-71
2021/06/17 06:34:51;;;;;;;13.68;10.18;;;;;;;25.09;49.60;101083.69;5018359;28;20104;-72
2021/06/17 06:37:19;;;;;;;18.05;10.48;;;;;;;25.16;49.38;101095.78;5016164;28;20223;-72
2021/06/17 06:39:47;;;;;;;14.82;9.68;;;;;;;25.46;49.39;101096.78;5018824;28;20057;-74
2021/06/17 06:42:15;;;;;;;18.50;10.77;;;;;;;25.79;48.17;101092.78;5018458;28;20065;-71
2021/06/17 06:44:43;;;;;;;21.45;11.65;;;;;;;25.37;49.82;101089.41;5013688;28;20072;-73
2021/06/17 06:47:12;;;;;;;16.27;11.50;;;;;;;25.73;49.51;101093.38;5012355;28;20603;-72
2021/06/17 06:49:40;;;;;;;15.68;10.80;;;;;;;26.11;48.74;101093.56;5015390;28;20061;-71
2021/06/17 06:52:10;;;;;;;28.38;11.63;;;;;;;25.76;49.90;101108.63;5015198;28;20061;-72
2021/06/17 06:54:38;;;;;;;26.60;11.95;;;;;;;25.74;50.32;101111.47;5016384;28;20062;-71
2021/06/17 06:57:06;;;;;;;24.23;11.88;;;;;;;26.38;49.21;101112.84;5013757;28;20448;-72
2021/06/17 06:59:33;;;;;;;16.20;10.40;;;;;;;26.82;48.93;101126.03;5014107;28;20072;-72
2021/06/17 07:02:03;;;;;;;20.35;9.20;;;;;;;26.86;49.78;101132.06;5017698;28;20068;-72
2021/06/17 07:04:33;;;;;;;32.08;9.68;;;;;;;27.27;48.81;101132.63;5012594;28;20065;-72
2021/06/17 07:07:01;;;;;;;21.42;8.13;;;;;;;26.93;49.92;101133.19;5017553;28;20058;-72
2021/06/17 07:09:29;;;;;;;23.38;8.32;;;;;;;27.06;49.92;101144.69;5014455;28;20049;-73
2021/06/17 07:11:56;;;;;;;14.07;7.35;;;;;;;26.87;50.75;101136.53;5017485;28;20076;-72
2021/06/17 07:14:25;;;;;;;15.68;7.00;;;;;;;26.93;51.18;101133.19;5016508;28;20060;-79
2021/06/17 07:16:52;;;;;;;14.95;7.50;;;;;;;26.92;50.77;101129.63;5014111;28;20108;-72
2021/06/17 07:19:20;;;;;;;13.57;7.78;;;;;;;27.15;50.82;101110.06;5013246;28;20066;-72
2021/06/17 07:21:50;;;;;;;14.98;7.55;;;;;;;27.56;50.24;101105.97;5015772;28;20065;-72
2021/06/17 07:24:18;;;;;;;11.73;6.60;;;;;;;27.79;50.07;101104.66;5016570;28;20110;-72
2021/06/17 07:26:47;;;;;;;14.35;7.72;;;;;;;28.33;48.73;101108.28;5017997;28;20058;-72
2021/06/17 07:29:15;;;;;;;11.65;7.07;;;;;;;28.58;48.03;101114.88;5011279;28;20062;-72
2021/06/17 07:31:43;;;;;;;14.45;6.88;;;;;;;28.48;47.64;101142.38;5016318;28;20069;-73
2021/06/17 07:34:11;;;;;;;11.88;6.43;;;;;;;28.19;48.64;101150.00;5012586;28;20065;-73
2021/06/17 07:36:40;;;;;;;10.00;5.68;;;;;;;27.94;48.90;101158.84;5015222;28;20058;-76
2021/06/17 07:39:11;;;;;;;13.07;6.20;;;;;;;28.30;47.58;101145.16;5014279;28;20058;-72
2021/06/17 07:41:40;;;;;;;9.93;5.68;;;;;;;28.20;47.94;101149.00;5011803;28;20061;-73
2021/06/17 07:44:09;;;;;;;10.00;6.25;;;;;;;28.37;47.87;101144.53;5019486;28;20049;-73
2021/06/17 07:46:38;;;;;;;11.75;7.10;;;;;;;28.02;48.27;101114.19;5011004;28;20060;-72
2021/06/17 07:49:06;;;;;;;13.70;6.95;;;;;;;28.32;47.99;101087.38;5012930;28;20135;-73
2021/06/17 07:51:36;;;;;;;11.95;7.15;;;;;;;28.01;48.51;101101.50;5013019;28;20072;-72
2021/06/17 07:54:05;;;;;;;10.88;6.70;;;;;;;28.73;47.42;101090.44;5013843;28;20065;-72
2021/06/17 07:56:34;;;;;;;15.60;7.82;;;;;;;29.31;46.79;101079.78;5013861;28;20058;-72
2021/06/17 07:59:02;;;;;;;13.38;7.57;;;;;;;29.14;46.15;101071.44;5013756;28;20066;-72
2021/06/17 08:01:30;;;;;;;10.93;7.28;;;;;;;27.48;49.49;101083.09;5012156;28;20069;-72
2021/06/17 08:03:59;;;;;;;12.80;7.05;;;;;;;27.75;49.33;101082.19;5016305;28;20066;-73
2021/06/17 08:06:26;;;;;;;11.25;6.95;;;;;;;27.46;49.62;101079.66;5010103;28;20066;-72
2021/06/17 08:08:54;;;;;;;10.60;6.95;;;;;;;27.56;49.55;101069.50;5014722;28;20061;-72
2021/06/17 08:11:22;;;;;;;15.05;7.25;;;;;;;27.81;49.34;101064.28;5031652;28;20472;-71
2021/06/17 08:14:11;;;;;;;14.65;7.15;;;;;;;27.04;50.29;101053.63;5012086;28;20144;-72
2021/06/17 08:16:39;;;;;;;10.18;7.38;;;;;;;27.27;50.42;101058.69;5014033;28;20049;-72
2021/06/17 08:19:07;;;;;;;14.02;7.05;;;;;;;27.27;50.80;101053.22;5011527;28;20164;-72
2021/06/17 08:21:34;;;;;;;13.80;6.72;;;;;;;27.17;49.74;101039.56;5013914;28;20064;-72
2021/06/17 08:24:03;;;;;;;12.48;6.65;;;;;;;27.31;50.52;101024.53;5015797;28;20151;-72
2021/06/17 08:26:32;;;;;;;11.23;6.85;;;;;;;27.40;49.59;101026.34;5011631;28;20052;-72
2021/06/17 08:29:00;;;;;;;13.82;7.82;;;;;;;27.24;48.93;101045.28;5015607;28;20480;-72
2021/06/17 08:31:29;;;;;;;11.70;7.00;;;;;;;27.17;50.10;101053.25;5009047;28;20271;-72
2021/06/17 08:33:58;;;;;;;12.82;7.28;;;;;;;27.20;49.71;101051.06;5015641;28;20065;-72
2021/06/17 08:36:25;;;;;;;12.57;7.05;;;;;;;27.10;48.98;101042.03;5015714;28;20085;-72
2021/06/17 08:38:53;;;;;;;9.65;6.75;;;;;;;27.17;48.25;101039.56;5011672;28;20060;-72
2021/06/17 08:41:21;;;;;;;13.25;6.82;;;;;;;27.05;49.38;101019.75;5015114;28;20073;-72
2021/06/17 08:43:51;;;;;;;11.93;7.07;;;;;;;27.02;49.15;101020.91;5010996;28;20076;-71
2021/06/17 08:46:20;;;;;;;11.73;6.53;;;;;;;26.92;49.98;101005.53;5014198;28;20285;-72
2021/06/17 08:48:50;;;;;;;11.43;6.25;;;;;;;26.99;49.86;101017.63;5009726;28;20072;-75
2021/06/17 08:51:20;;;;;;;12.13;7.45;;;;;;;26.69;49.97;101014.16;5017677;28;20061;-74
2021/06/17 08:53:50;;;;;;;11.93;7.05;;;;;;;26.68;50.76;100979.59;5021283;28;20065;-74
2021/06/17 08:56:18;;;;;;;15.27;7.07;;;;;;;26.41;51.20;100991.34;5020614;28;20069;-74
2021/06/17 08:58:46;;;;;;;12.02;7.07;;;;;;;26.42;51.07;100984.84;5015179;28;20057;-74
2021/06/17 09:01:15;;;;;;;13.32;6.97;;;;;;;26.45;51.54;100996.34;5021060;28;20077;-74
2021/06/17 09:03:45;;;;;;;13.43;6.80;;;;;;;26.35;51.33;100998.25;5014865;28;20053;-74
2021/06/17 09:06:18;;;;;;;12.38;7.18;;;;;;;26.41;51.44;100999.53;5023184;28;20053;-74
2021/06/17 09:08:59;;;;;;;9.18;6.30;;;;;;;26.36;51.55;101019.13;5013306;28;20066;-75
2021/06/17 09:11:28;;;;;;;13.45;7.03;;;;;;;26.26;51.79;101021.03;5019726;28;20061;-72
2021/06/17 09:14:14;;;;;;;11.30;6.95;;;;;;;26.15;52.66;101041.16;5015225;28;20061;-74
2021/06/17 09:16:42;;;;;;;10.93;6.82;;;;;;;26.12;52.80;101048.81;5017868;28;20061;-75
2021/06/17 09:19:09;;;;;;;11.07;7.35;;;;;;;26.13;52.69;101039.59;5015216;28;20062;-74
2021/06/17 09:21:38;;;;;;;13.73;7.15;;;;;;;26.12;53.26;101046.06;5020187;28;20072;-74
2021/06/17 09:24:07;;;;;;;13.30;7.22;;;;;;;26.17;52.84;101054.69;5017910;28;20062;-74
2021/06/17 09:26:35;;;;;;;14.07;7.22;;;;;;;26.21;52.92;101065.22;5018294;28;20061;-74
2021/06/17 09:29:07;;;;;;;12.75;7.90;;;;;;;26.34;54.26;101053.09;5015649;28;20065;-74
2021/06/17 09:31:37;;;;;;;13.52;8.23;;;;;;;26.18;53.86;101067.38;5022242;28;20065;-74
2021/06/17 09:34:07;;;;;;;11.48;7.53;;;;;;;26.75;52.97;101061.94;5019545;28;20061;-74
2021/06/17 09:36:36;;;;;;;14.40;8.00;;;;;;;26.52;53.21;101059.53;5020164;28;20061;-73
2021/06/17 09:39:09;;;;;;;14.40;7.68;;;;;;;26.57;53.35;101073.63;5021422;28;20064;-74
2021/06/17 09:41:39;;;;;;;12.27;7.68;;;;;;;26.45;53.42;101075.66;5019734;28;20065;-73
2021/06/17 09:44:27;;;;;;;14.18;8.60;;;;;;;26.75;53.31;101089.31;5017529;28;20063;-73
2021/06/17 09:47:05;;;;;;;16.17;8.13;;;;;;;26.89;52.23;101097.06;5013923;28;20057;-73
2021/06/17 09:49:33;;;;;;;12.13;7.18;;;;;;;27.51;51.00;101093.75;5014129;28;20065;-72
2021/06/17 09:52:01;;;;;;;13.25;7.53;;;;;;;27.88;50.72;101101.00;5016991;28;20073;-71
2021/06/17 09:54:31;;;;;;;13.60;8.13;;;;;;;28.00;49.36;101102.53;5015602;28;20061;-72
2021/06/17 09:57:01;;;;;;;12.95;7.53;;;;;;;28.57;48.68;101093.06;5015530;28;20143;-73
2021/06/17 09:59:42;;;;;;;13.40;7.85;;;;;;;27.77;48.82;101102.09;5015864;28;20071;-73
2021/06/17 10:02:12;;;;;;;11.18;7.28;;;;;;;27.40;49.43;101105.78;5017226;28;20076;-71
2021/06/17 10:04:40;;;;;;;10.70;7.03;;;;;;;27.71;48.95;101100.81;5015521;28;20058;-73
2021/06/17 10:07:08;;;;;;;12.68;7.00;;;;;;;28.00;48.38;101104.41;5014349;28;20092;-73
2021/06/17 10:09:38;;;;;;;11.40;7.45;;;;;;;28.65;47.45;101102.22;5016606;28;20054;-73
2021/06/17 10:12:07;;;;;;;13.02;6.68;;;;;;;29.30;45.32;101119.25;5013048;28;20490;-74
2021/06/17 10:14:35;;;;;;;11.25;6.90;;;;;;;29.36;45.32;101107.63;5016918;28;20061;-72
2021/06/17 10:17:04;;;;;;;14.25;7.07;;;;;;;30.02;44.23;101100.41;5013543;28;20535;-73
2021/06/17 10:19:32;;;;;;;13.82;6.70;;;;;;;29.73;44.71;101112.72;5016731;28;20242;-73
2021/06/17 10:22:01;;;;;;;12.13;7.82;;;;;;;29.50;45.13;101117.09;5018741;28;20065;-73
2021/06/17 10:24:33;;;;;;;13.65;7.88;;;;;;;30.37;43.54;101101.13;5021369;28;20437;-73
2021/06/17 10:27:10;;;;;;;11.90;6.93;;;;;;;30.04;43.81;101116.75;5013705;28;20068;-73
2021/06/17 10:29:40;;;;;;;13.93;7.40;;;;;;;30.26;44.17;101118.81;5013777;28;20064;-73
2021/06/17 10:32:10;;;;;;;11.35;6.95;;;;;;;30.77;43.22;101121.41;5015822;28;20059;-73
2021/06/17 10:34:43;;;;;;;14.70;7.22;;;;;;;30.59;43.74;101124.34;5017208;28;20434;-73
2021/06/17 10:37:14;;;;;;;15.00;6.90;;;;;;;30.77;43.93;101140.69;5014931;28;20077;-74
2021/06/17 10:39:44;;;;;;;12.05;6.65;;;;;;;30.87;43.37;101127.56;5013152;28;20534;-73
2021/06/17 10:42:27;;;;;;;13.32;6.78;;;;;;;31.16;42.72;101142.69;5013724;28;20060;-75
2021/06/17 10:44:56;;;;;;;;;;;;;;;30.87;42.30;101140.47;5022656;28;20068;-72
2021/06/17 10:48:05;;;;;;;14.88;6.43;;;;;;;30.58;41.77;101135.53;5013403;28;19936;-75
2021/06/17 10:50:54;;;;;;;14.25;6.53;;;;;;;30.65;42.72;101144.78;5019165;28;20188;-74
2021/06/17 10:53:33;;;;;;;10.15;6.03;;;;;;;30.79;41.72;101140.50;5015451;28;20073;-73
2021/06/17 10:56:03;;;;;;;13.45;6.30;;;;;;;30.77;40.62;101145.28;5016686;28;20080;-73
2021/06/17 10:58:56;;;;;;;12.70;6.07;;;;;;;30.79;40.91;101151.53;5016262;28;20088;-73
2021/06/17 11:01:33;;;;;;;10.85;5.93;;;;;;;31.02;41.23;101151.66;5015083;28;20147;-73
2021/06/17 11:04:20;;;;;;;9.77;6.20;;;;;;;32.07;39.46;101147.78;5016982;28;20068;-72
2021/06/17 11:07:17;;;;;;;15.05;7.72;;;;;;;30.69;41.06;101143.44;5015650;28;20064;-74
2021/06/17 11:09:58;;;;;;;11.55;6.40;;;;;;;30.25;42.82;101154.75;5016747;28;20592;-75
2021/06/17 11:12:57;;;;;;;15.85;7.93;;;;;;;29.87;43.69;101159.88;5012823;28;20305;-74
2021/06/17 11:15:44;;;;;;;13.25;6.68;;;;;;;30.65;42.18;101158.56;5015626;28;20069;-74
2021/06/17 11:18:13;;;;;;;11.32;6.78;;;;;;;30.45;43.13;101155.31;5011118;28;20132;-75
2021/06/17 11:20:45;;;;;;;18.15;7.80;;;;;;;30.05;43.76;101167.97;5014151;28;20068;-74
2021/06/17 11:23:18;;;;;;;15.45;7.43;;;;;;;29.92;44.60;101163.81;5011955;28;20061;-74
2021/06/17 11:25:46;;;;;;;16.38;7.38;;;;;;;29.70;44.87;101167.19;5011954;28;20273;-73
2021/06/17 11:28:20;;;;;;;19.92;7.25;;;;;;;29.83;43.23;101162.09;5014058;28;21091;-72
2021/06/17 11:31:02;;;;;;;13.38;6.82;;;;;;;30.75;42.17;101172.16;5011119;28;20069;-72